createdAt,value
2022-10-07T00:00:02.284Z,1020.1038229942575
2022-10-07T00:15:01.964Z,1020.0072160659081
2022-10-07T00:30:01.630Z,1019.8549455844403
2022-10-07T00:45:02.278Z,1019.6669970618403
2022-10-07T01:00:01.905Z,1019.497595392615
2022-10-07T01:15:02.588Z,1019.369027063963
2022-10-07T01:30:02.267Z,1019.15774850739
2022-10-07T01:45:01.926Z,1018.9668648060677
2022-10-07T02:00:01.594Z,1018.7580813598844
2022-10-07T02:15:02.256Z,1018.6544863519246
2022-10-07T02:30:01.927Z,1018.4208847070184
2022-10-07T02:45:01.589Z,1018.2744492057086
2022-10-07T03:00:04.273Z,1018.1836680393116
2022-10-07T03:15:01.977Z,1018.075977293164
2022-10-07T03:30:01.653Z,1018.0049802991147
2022-10-07T03:45:02.301Z,1017.9103564760268
2022-10-07T04:00:01.912Z,1017.7189682104434
2022-10-07T04:15:02.566Z,1017.6175990327355
2022-10-07T04:30:01.810Z,1017.5323970075095
2022-10-07T04:45:02.514Z,1017.377200946356
2022-10-07T05:00:02.103Z,1017.2966199568432
2022-10-07T05:15:01.733Z,1017.3206945395589
2022-10-07T05:30:02.421Z,1017.2257788338643
2022-10-07T05:45:02.087Z,1017.0053717828657
2022-10-07T06:00:01.800Z,1016.9094146347426
2022-10-07T06:15:02.495Z,1016.8136212447456
2022-10-07T06:30:02.166Z,1016.8578407288873
2022-10-07T06:45:01.827Z,1016.9366922014947
2022-10-07T07:00:02.504Z,1016.954430560599
2022-10-07T07:15:02.165Z,1016.8630215920812
2022-10-07T07:30:01.873Z,1016.7424084481265
2022-10-07T07:45:02.501Z,1016.7187187449182
2022-10-07T08:00:02.196Z,1016.6567924784488
2022-10-07T08:15:01.892Z,1016.4769189307113
2022-10-07T08:30:01.704Z,1016.2963376304273
2022-10-07T08:45:02.399Z,1016.3417505482008
2022-10-07T09:00:02.001Z,1016.0861112047698
2022-10-07T09:15:01.667Z,1016.0365124243036
2022-10-07T09:30:02.341Z,1015.8489441837245
2022-10-07T09:45:01.972Z,1015.7298755297942
2022-10-07T10:00:01.628Z,1015.5576470903425
2022-10-07T10:15:02.246Z,1015.4671509746425
2022-10-07T10:30:01.953Z,1015.3508258373076
2022-10-07T10:45:01.589Z,1015.0740263113356
2022-10-07T11:00:02.262Z,1014.8293343128804
2022-10-07T11:15:02.247Z,1014.5096378910893
2022-10-07T11:30:02.034Z,1014.250188345334
2022-10-07T11:45:01.736Z,1014.1207016861002
2022-10-07T12:00:02.357Z,1013.9180392991522
2022-10-07T12:15:01.972Z,1013.427776836269
2022-10-07T12:30:01.638Z,1013.293772654675
2022-10-07T12:45:02.240Z,1013.1196393751565
2022-10-07T13:00:02.024Z,1012.8497773250319
2022-10-07T13:15:01.719Z,1012.6399666144162
2022-10-07T13:30:02.476Z,1012.4089863908359
2022-10-07T13:45:02.105Z,1012.1392555812616
2022-10-07T14:00:01.754Z,1011.991100202246
2022-10-07T14:15:02.357Z,1011.8266749522131
2022-10-07T14:30:02.047Z,1011.579135806021
2022-10-07T14:45:01.704Z,1011.4351322396426
2022-10-07T15:00:02.411Z,1011.2101583016723
2022-10-07T15:15:02.023Z,1011.0235810314709
2022-10-07T15:30:01.720Z,1010.9660511541229
2022-10-07T15:45:02.360Z,1010.6372047447962
2022-10-07T16:00:01.969Z,1010.6987772995365
2022-10-07T16:15:01.653Z,1010.5965436562515
2022-10-07T16:30:02.319Z,1010.4478126090909
2022-10-07T16:45:01.945Z,1010.3141393339826
2022-10-07T17:00:01.665Z,1010.2941174986246
2022-10-07T17:15:02.296Z,1010.3537000407351
2022-10-07T17:30:01.975Z,1010.2212687978789
2022-10-07T17:45:01.651Z,1010.1523146846182
2022-10-07T18:00:02.317Z,1010.0873122155956
2022-10-07T18:15:01.946Z,1010.0962774678388
2022-10-07T18:30:01.622Z,1010.0452603940457
2022-10-07T18:45:02.216Z,1010.0006128462624
2022-10-07T19:00:01.853Z,1009.9106300406701
2022-10-07T19:15:02.472Z,1009.8956656695115
2022-10-07T19:30:02.136Z,1009.8488425132043
2022-10-07T19:45:01.801Z,1009.6495585839237
2022-10-07T20:00:02.446Z,1009.6187773775786
2022-10-07T20:15:02.075Z,1009.4703446334363
2022-10-07T20:30:01.715Z,1009.4804727862323
2022-10-07T20:45:02.349Z,1009.4482525763713
2022-10-07T21:00:01.980Z,1009.3667861739017
2022-10-07T21:15:01.622Z,1009.2519581637619
2022-10-07T21:30:02.308Z,1009.126034550469
2022-10-07T21:45:02.060Z,1008.9493617375877
2022-10-07T22:00:01.795Z,1008.6847472571876
2022-10-07T22:15:02.454Z,1008.5822910461238
2022-10-07T22:30:02.130Z,1008.4235054354685
2022-10-07T22:45:01.807Z,1008.2382137952263
2022-10-07T23:00:02.477Z,1008.1166909587348
2022-10-07T23:15:02.123Z,1008.1468544761115
2022-10-07T23:30:01.807Z,1008.0057215419762
2022-10-07T23:45:02.446Z,1007.8184520884917
